Time;durP1;ratioP1;P1;durP2;ratioP2;P2;SDS_P1;SDS_P2;PMS_P1;PMS_P2;Temp;Humidity;BMP_temperature;BMP_pressure;BME280_temperature;BME280_humidity;BME280_pressure;Samples;Min_cycle;Max_cycle;Signal;HPM_P1;HPM_P2
2022/02/03 00:01:52;;;;;;;8.77;3.47;;;2.00;99.90;;;1.87;78.79;101435.91;5080427;28;20173;-69
2022/02/03 00:04:25;;;;;;;17.40;2.72;;;2.00;99.90;;;2.03;77.86;101438.13;5080163;28;20203;-69
2022/02/03 00:06:59;;;;;;;10.82;2.97;;;2.10;99.90;;;1.96;77.93;101431.59;5081560;28;20192;-70
2022/02/03 00:09:59;;;;;;;13.52;3.80;;;2.10;99.90;;;2.12;78.50;101432.81;5080384;28;20666;-69
2022/02/03 00:24:08;;;;;;;13.85;3.65;;;2.30;99.90;;;2.16;76.94;101449.41;5081610;28;20208;-70
2022/02/03 00:26:45;;;;;;;20.33;5.05;;;2.30;99.90;;;2.03;76.67;101457.63;5080405;28;20244;-69
2022/02/03 00:29:31;;;;;;;14.70;4.43;;;2.20;99.90;;;2.02;76.62;101463.09;5076727;28;20214;-70
2022/02/03 00:32:07;;;;;;;21.40;4.15;;;2.20;99.90;;;2.02;77.15;101465.78;5077877;28;20252;-69
2022/02/03 00:34:48;;;;;;;21.17;3.30;;;2.20;99.90;;;1.92;77.03;101471.06;5080412;28;20273;-69
2022/02/03 00:37:33;;;;;;;13.27;3.60;;;2.10;99.90;;;1.81;77.20;101473.81;5079431;28;20184;-69
2022/02/03 00:48:33;;;;;;;12.45;3.22;;;1.80;99.90;;;1.65;78.24;101468.94;5080951;28;20183;-71
2022/02/03 00:51:03;;;;;;;26.55;4.63;;;1.80;99.90;;;1.59;78.28;101468.63;5079431;28;20580;-70
2022/02/03 00:53:32;;;;;;;17.38;3.00;;;1.80;99.90;;;1.52;78.99;101473.63;5078113;28;20280;-70
2022/02/03 00:56:08;;;;;;;24.25;4.00;;;1.80;99.90;;;1.61;78.58;101472.00;5077733;28;20188;-71
2022/02/03 00:58:44;;;;;;;19.83;3.58;;;1.80;99.90;;;1.61;78.69;101461.31;5076437;28;20193;-69
2022/02/03 01:01:19;;;;;;;12.70;3.17;;;1.80;99.90;;;1.55;78.98;101468.00;5076053;28;20494;-70
2022/02/03 01:03:52;;;;;;;11.07;3.90;;;1.80;99.90;;;1.55;78.71;101465.34;5075184;28;20282;-70
2022/02/03 01:06:28;;;;;;;10.43;3.55;;;1.80;99.90;;;1.61;78.81;101464.84;5073179;28;20203;-69
2022/02/03 01:08:57;;;;;;;14.45;3.60;;;1.80;99.90;;;1.65;79.18;101468.09;5073894;28;20168;-70
2022/02/03 01:11:33;;;;;;;14.10;3.70;;;1.80;99.90;;;1.45;78.97;101476.94;5073505;28;20212;-70
2022/02/03 01:14:08;;;;;;;10.77;3.67;;;1.70;99.90;;;1.47;79.02;101480.31;5075713;28;20276;-70
2022/02/03 01:16:56;;;;;;;15.38;5.07;;;1.70;99.90;;;1.51;79.85;101471.06;5058152;28;20208;-69
2022/02/03 01:20:10;;;;;;;17.85;3.80;;;1.70;99.90;;;1.59;79.53;101468.63;5079746;28;20180;-68
2022/02/03 01:33:55;;;;;;;16.75;3.45;;;2.00;99.90;;;2.13;77.87;101466.50;5083213;28;20211;-70
2022/02/03 01:44:55;;;;;;;16.52;5.35;;;2.40;99.90;;;2.34;77.16;101482.50;5074658;28;20235;-70
2022/02/03 01:47:32;;;;;;;12.55;3.90;;;2.40;99.90;;;2.38;77.15;101483.06;5074026;28;20180;-68
2022/02/03 01:52:54;;;;;;;10.50;3.50;;;2.50;99.90;;;2.40;76.80;101487.31;5074320;28;20184;-69
2022/02/03 01:55:26;;;;;;;17.30;4.85;;;2.50;99.90;;;2.40;76.97;101473.09;5074021;28;20215;-68
2022/02/03 01:58:02;;;;;;;21.83;3.28;;;2.50;99.90;;;2.58;76.89;101466.13;5077178;28;20192;-69
2022/02/03 02:00:39;;;;;;;13.48;3.67;;;2.50;99.90;;;2.57;76.52;101459.06;5075592;28;20172;-69
2022/02/03 02:03:38;;;;;;;14.60;3.45;;;2.60;99.90;;;2.59;76.33;101455.31;5074467;28;20219;-69
2022/02/03 02:07:11;;;;;;;14.50;3.45;;;2.60;99.90;;;2.59;76.36;101459.81;5075498;28;20178;-70
2022/02/03 02:10:12;;;;;;;13.02;3.40;;;2.60;99.90;;;2.68;76.33;101450.97;4976274;28;20246;-69
2022/02/03 02:13:02;;;;;;;12.00;3.63;;;2.70;99.90;;;2.73;76.21;101451.38;4977209;28;20266;-70
2022/02/03 02:38:11;;;;;;;11.85;3.80;;;2.90;99.90;;;2.87;76.19;101431.44;5083145;28;20172;-70
2022/02/03 02:43:50;;;;;;;20.88;4.85;;;2.90;99.90;;;2.86;75.96;101425.22;5070701;28;20228;-69
2022/02/03 02:46:30;;;;;;;20.17;4.45;;;2.90;99.90;;;2.91;76.01;101417.63;5080905;28;20207;-70
2022/02/03 02:49:24;;;;;;;6.78;3.13;;;3.00;99.90;;;2.84;76.34;101411.19;5081731;28;20517;-69
2022/02/03 02:52:00;;;;;;;27.00;5.97;;;2.90;99.90;;;2.83;76.36;101404.13;5080573;28;20620;-68
2022/02/03 02:55:00;;;;;;;14.30;4.05;;;2.90;99.90;;;2.91;76.29;101401.59;5081417;28;20322;-69
2022/02/03 02:57:59;;;;;;;10.35;3.80;;;3.00;99.90;;;2.92;76.27;101405.97;5081541;28;20230;-70
2022/02/03 03:01:17;;;;;;;17.70;4.43;;;3.00;99.90;;;2.90;76.27;101409.78;5062906;28;20200;-69
2022/02/03 03:29:43;;;;;;;16.73;4.50;;;3.20;99.90;;;3.03;75.88;101376.41;5080161;28;20176;-69
2022/02/03 03:32:41;;;;;;;16.70;4.70;;;3.10;99.90;;;3.12;75.68;101377.41;5080698;28;20212;-69
2022/02/03 03:35:29;;;;;;;18.13;4.45;;;3.20;99.90;;;3.15;75.42;101374.44;5061980;28;20232;-68
2022/02/03 03:38:00;;;;;;;13.13;3.35;;;3.20;99.90;;;3.23;75.22;101374.56;5079708;28;20193;-68
2022/02/03 03:40:33;;;;;;;13.20;4.20;;;3.30;99.90;;;3.25;75.28;101369.91;5079990;28;20192;-69
2022/02/03 03:43:07;;;;;;;25.30;5.00;;;3.30;99.90;;;3.31;75.40;101366.66;5078972;28;20176;-69
2022/02/03 03:45:38;;;;;;;13.95;3.78;;;3.30;99.90;;;3.34;74.97;101371.72;5079664;28;20204;-69
2022/02/03 03:48:09;;;;;;;10.65;3.80;;;3.40;99.90;;;3.32;75.21;101368.34;5079217;28;20188;-71
2022/02/03 03:50:40;;;;;;;8.93;2.50;;;3.40;99.90;;;3.36;74.97;101375.09;5079149;28;20181;-69
2022/02/03 03:53:18;;;;;;;13.32;2.97;;;3.40;99.90;;;3.44;74.95;101366.34;5074828;28;20616;-70
2022/02/03 03:55:57;;;;;;;13.52;6.13;;;3.40;99.90;;;3.50;74.15;101371.13;5074754;28;20648;-70
2022/02/03 03:58:53;;;;;;;13.13;5.55;;;3.50;99.90;;;3.47;74.25;101366.91;5074761;28;20178;-70
2022/02/03 04:34:37;;;;;;;15.30;3.95;;;3.70;99.90;;;3.65;74.16;101353.63;5012874;28;20228;-69
2022/02/03 04:59:20;;;;;;;15.32;3.33;;;3.70;99.90;;;3.59;73.92;101326.59;5088344;28;20192;-69
2022/02/03 05:02:28;;;;;;;14.63;3.88;;;3.60;99.90;;;3.43;74.06;101322.72;5075244;28;20199;-70
2022/02/03 05:05:20;;;;;;;12.75;3.50;;;3.60;99.90;;;3.51;73.60;101316.63;5073240;28;20208;-70
2022/02/03 05:08:30;;;;;;;19.55;5.53;;;3.60;99.90;;;3.51;73.19;101313.94;5073335;28;20211;-69
2022/02/03 05:11:44;;;;;;;20.38;4.25;;;3.60;99.90;;;3.49;73.29;101315.91;5072485;28;20176;-69
2022/02/03 05:14:59;;;;;;;11.80;3.42;;;3.60;99.90;;;3.41;73.54;101323.84;5072597;28;20208;-69
2022/02/03 05:18:22;;;;;;;13.57;3.53;;;3.50;99.90;;;3.43;73.42;101327.22;5073546;28;20245;-69
2022/02/03 05:22:08;;;;;;;21.63;3.40;;;3.50;99.90;;;3.26;73.91;101330.63;5072291;28;20199;-69
2022/02/03 05:25:28;;;;;;;20.60;5.00;;;3.30;99.90;;;3.05;74.28;101323.63;5071892;28;20207;-69
2022/02/03 05:35:13;;;;;;;13.75;4.40;;;3.10;99.90;;;2.90;75.44;101337.59;5071360;22;20709;-68
2022/02/03 05:44:13;;;;;;;18.10;5.80;;;3.20;99.90;;;3.04;75.06;101335.34;5076433;28;20172;-69
2022/02/03 05:49:56;;;;;;;14.88;4.38;;;3.10;99.90;;;3.14;75.37;101326.44;5064135;28;20204;-69
2022/02/03 05:52:45;;;;;;;15.75;3.85;;;3.20;99.90;;;3.18;75.08;101333.19;5075102;28;20764;-68
2022/02/03 06:00:45;;;;;;;11.55;4.00;;;3.20;99.90;;;3.14;74.35;101332.66;5076289;28;20224;-69
2022/02/03 06:01:32;;;;;;;14.43;4.47;;;3.20;99.90;;;3.18;74.11;101317.16;5074016;28;20172;-68
2022/02/03 06:04:12;;;;;;;9.40;4.82;;;3.20;99.90;;;2.98;74.32;101317.19;5073328;28;20211;-69
2022/02/03 06:09:43;;;;;;;14.30;3.63;;;3.10;99.90;;;3.23;74.61;101301.50;5075885;28;20184;-68
2022/02/03 06:12:37;;;;;;;17.98;3.72;;;3.20;99.90;;;3.19;73.64;101308.16;5075516;28;20309;-68
2022/02/03 06:15:12;;;;;;;12.65;3.33;;;3.20;99.90;;;3.23;73.46;101298.84;5075202;28;20214;-68
2022/02/03 06:23:47;;;;;;;9.20;3.10;;;3.20;99.90;;;3.23;72.82;101298.84;5075307;28;20262;-69
2022/02/03 06:29:07;;;;;;;12.13;4.63;;;3.30;99.90;;;3.28;72.68;101285.88;5057083;28;20196;-69
2022/02/03 06:31:36;;;;;;;17.83;4.15;;;3.40;99.90;;;3.13;73.39;101284.66;5066426;28;20189;-69
2022/02/03 06:34:07;;;;;;;15.75;4.72;;;3.30;99.90;;;3.13;73.28;101282.81;5063577;28;20348;-69
2022/02/03 06:36:38;;;;;;;16.70;3.47;;;3.30;99.90;;;3.10;72.95;101287.63;5066454;28;20196;-68
2022/02/03 06:39:17;;;;;;;19.45;4.43;;;3.20;99.90;;;3.02;74.44;101281.16;5068516;28;20512;-70
2022/02/03 06:41:46;;;;;;;13.05;4.10;;;3.10;99.90;;;2.98;73.95;101277.06;5074973;28;20191;-68
2022/02/03 06:44:15;;;;;;;21.98;5.60;;;3.10;99.90;;;3.09;73.71;101278.75;5075046;28;20204;-67
2022/02/03 06:46:48;;;;;;;13.88;4.05;;;3.20;99.90;;;3.13;73.15;101282.81;5074834;28;20188;-68
2022/02/03 06:49:24;;;;;;;12.75;4.90;;;3.20;99.90;;;3.17;73.13;101278.84;5066791;28;20193;-69
2022/02/03 06:51:58;;;;;;;10.43;2.92;;;3.20;99.90;;;3.11;73.78;101279.44;5066278;28;20648;-69
2022/02/03 06:54:36;;;;;;;14.20;4.28;;;3.20;99.90;;;3.14;73.53;101278.31;5074688;28;20203;-69
2022/02/03 06:57:12;;;;;;;18.48;4.43;;;3.20;99.90;;;3.09;73.54;101268.06;5075119;28;20175;-69
2022/02/03 06:59:48;;;;;;;12.68;4.03;;;3.20;99.90;;;3.03;73.87;101265.94;5075027;28;20180;-69
2022/02/03 07:02:17;;;;;;;13.93;4.57;;;3.20;99.90;;;3.09;73.36;101269.88;5075374;28;20188;-69
2022/02/03 07:04:47;;;;;;;10.80;3.90;;;3.10;99.90;;;3.19;73.00;101260.00;5075336;28;20629;-68
2022/02/03 07:07:17;;;;;;;13.95;3.85;;;3.20;99.90;;;3.23;72.92;101266.75;5075190;28;20187;-68
2022/02/03 07:09:51;;;;;;;15.02;4.45;;;3.30;99.90;;;3.09;73.49;101259.19;5063482;28;20195;-69
2022/02/03 07:12:20;;;;;;;13.25;3.65;;;3.20;99.90;;;3.17;73.82;101253.94;5068379;28;20268;-68
2022/02/03 07:14:49;;;;;;;24.83;4.47;;;3.20;99.90;;;3.26;73.14;101261.09;5055258;28;20223;-68
2022/02/03 07:17:17;;;;;;;17.08;5.25;;;3.30;99.90;;;3.23;73.04;101256.03;5054445;28;20196;-69
2022/02/03 07:19:49;;;;;;;11.20;5.38;;;3.30;99.90;;;3.30;72.90;101254.44;5054723;28;20219;-68
2022/02/03 07:22:18;;;;;;;15.40;4.80;;;3.30;99.90;;;3.29;73.43;101255.47;5054620;28;20173;-68
2022/02/03 07:24:51;;;;;;;16.75;5.03;;;3.30;99.90;;;3.41;73.22;101260.47;5054593;28;20209;-68
2022/02/03 07:27:21;;;;;;;10.63;4.75;;;3.40;99.90;;;3.44;72.70;101256.66;5054796;28;20207;-68
2022/02/03 07:29:50;;;;;;;16.42;4.65;;;3.40;99.90;;;3.56;72.37;101262.66;5054566;28;20226;-68
2022/02/03 07:32:21;;;;;;;12.25;5.70;;;3.50;99.90;;;3.59;72.82;101265.88;5054458;28;20174;-68
2022/02/03 07:34:54;;;;;;;16.13;5.18;;;3.60;99.90;;;3.68;72.76;101266.84;5053982;28;20212;-68
2022/02/03 07:37:25;;;;;;;14.88;5.80;;;3.60;99.90;;;3.85;72.20;101264.22;5054323;28;20181;-68
2022/02/03 07:39:54;;;;;;;16.15;7.20;;;3.70;99.90;;;3.84;71.49;101256.31;5054275;28;20177;-69
2022/02/03 07:42:28;;;;;;;11.65;5.13;;;3.80;99.90;;;3.83;71.99;101251.94;5054415;28;20188;-68
2022/02/03 07:44:56;;;;;;;11.65;4.55;;;3.80;99.90;;;3.81;71.65;101246.75;5053830;28;20295;-69
2022/02/03 07:47:25;;;;;;;20.08;7.63;;;3.80;99.90;;;4.04;71.36;101239.13;5054135;28;20189;-69
2022/02/03 07:49:54;;;;;;;15.13;5.70;;;3.90;99.90;;;3.99;71.30;101236.06;5054025;28;20223;-68
2022/02/03 07:52:23;;;;;;;16.90;5.60;;;3.90;99.90;;;3.98;71.30;101241.56;5054599;28;20192;-68
2022/02/03 07:54:51;;;;;;;22.67;6.82;;;4.00;99.90;;;4.03;71.42;101237.44;5054001;28;20217;-69
2022/02/03 07:57:22;;;;;;;20.65;5.68;;;4.00;99.90;;;4.06;71.44;101239.00;5054100;28;20193;-68
2022/02/03 07:59:52;;;;;;;22.23;6.03;;;4.10;99.90;;;4.15;70.98;101232.72;5053950;28;20177;-68
2022/02/03 08:02:21;;;;;;;20.25;6.20;;;4.10;99.90;;;4.16;71.65;101237.94;5053942;28;20187;-67
2022/02/03 08:04:50;;;;;;;21.13;5.82;;;4.10;99.90;;;4.37;70.94;101237.59;5052483;28;20646;-67
2022/02/03 08:07:22;;;;;;;29.27;7.65;;;4.30;99.90;;;4.30;70.89;101228.53;5054152;28;20181;-68
2022/02/03 08:09:57;;;;;;;24.38;6.68;;;4.30;99.90;;;4.31;71.22;101224.81;5054014;28;20195;-68
2022/02/03 08:12:30;;;;;;;23.58;5.93;;;4.30;99.90;;;4.25;71.09;101225.47;5054156;28;20636;-69
2022/02/03 08:14:59;;;;;;;11.95;6.00;;;4.30;99.90;;;4.37;71.02;101238.47;5053563;28;20629;-68
2022/02/03 08:17:35;;;;;;;17.25;7.75;;;4.40;99.90;;;4.51;71.21;101234.38;5053538;28;20204;-68
2022/02/03 08:20:09;;;;;;;14.85;6.72;;;4.40;99.90;;;4.57;70.40;101220.38;5054020;28;20183;-67
2022/02/03 08:22:44;;;;;;;14.07;7.05;;;4.50;99.90;;;4.80;70.00;101220.69;5054006;28;20550;-68
2022/02/03 08:25:19;;;;;;;16.65;8.05;;;4.60;99.90;;;4.98;69.05;101226.03;5053910;28;20204;-67
2022/02/03 08:30:46;;;;;;;17.88;6.25;;;4.80;99.90;;;5.04;69.09;101215.50;5039707;28;20211;-67
2022/02/03 08:33:18;;;;;;;15.07;6.20;;;4.90;99.90;;;5.22;69.39;101212.75;5053706;28;20192;-66
2022/02/03 08:35:50;;;;;;;21.50;6.80;;;5.00;99.90;;;5.36;68.36;101206.78;5053356;28;20592;-67
2022/02/03 08:38:27;;;;;;;17.15;8.05;;;5.20;99.90;;;5.60;67.63;101209.56;5053861;28;20180;-67
2022/02/03 08:41:01;;;;;;;21.63;6.53;;;5.40;99.90;;;5.77;67.58;101207.78;5053496;28;20189;-67
2022/02/03 08:43:32;;;;;;;15.35;5.95;;;5.50;99.90;;;5.80;66.98;101198.56;5053462;28;20177;-68
2022/02/03 08:46:04;;;;;;;13.85;5.95;;;5.60;99.90;;;5.78;67.68;101197.88;5053013;28;20177;-67
2022/02/03 08:48:34;;;;;;;21.05;7.47;;;5.60;99.90;;;5.96;67.91;101194.09;5053180;28;20184;-68
2022/02/03 08:51:05;;;;;;;18.02;7.70;;;5.70;99.90;;;6.22;66.70;101196.66;5053207;28;20608;-68
2022/02/03 08:53:40;;;;;;;12.98;6.10;;;5.90;99.90;;;6.22;66.27;101193.97;5053114;28;20673;-67
2022/02/03 08:56:21;;;;;;;15.18;7.10;;;6.10;98.10;;;5.98;67.29;101189.41;5052983;28;20564;-68
2022/02/03 09:41:27;;;;;;;17.33;8.80;;;6.20;99.90;;;6.33;67.85;101160.56;4992678;28;20681;-68
2022/02/03 09:55:36;;;;;;;11.60;6.53;;;6.40;99.90;;;6.83;67.58;101147.69;5057014;28;20671;-68
2022/02/03 09:58:13;;;;;;;21.40;7.10;;;6.50;99.90;;;7.07;66.56;101137.91;5056266;28;20218;-68
2022/02/03 10:01:03;;;;;;;23.25;6.47;;;6.70;99.90;;;7.03;66.91;101140.06;5044495;28;20536;-68
2022/02/03 10:03:39;;;;;;;15.60;6.28;;;6.80;99.90;;;6.94;67.85;101141.97;5032619;28;20201;-68
2022/02/03 10:06:16;;;;;;;13.50;6.07;;;6.80;99.90;;;6.99;68.50;101139.59;5050562;28;20192;-69
2022/02/03 10:08:49;;;;;;;13.98;6.25;;;6.80;99.90;;;6.86;68.97;101146.53;5052245;28;20276;-70
2022/02/03 10:11:20;;;;;;;10.70;5.93;;;6.80;99.90;;;6.98;68.87;101139.75;5050713;28;20338;-68
2022/02/03 10:13:51;;;;;;;12.30;7.03;;;6.80;99.90;;;7.03;69.32;101142.75;5051921;28;20254;-68
2022/02/03 10:16:25;;;;;;;16.65;6.80;;;6.80;99.90;;;6.99;70.09;101133.38;5051641;28;20180;-68
2022/02/03 10:19:06;;;;;;;11.73;6.18;;;6.80;99.90;;;6.85;70.17;101134.09;5051618;28;20191;-67
2022/02/03 10:21:35;;;;;;;15.85;7.10;;;6.70;99.90;;;7.02;70.42;101130.31;5051614;28;20208;-69
2022/02/03 10:24:07;;;;;;;17.13;7.28;;;6.70;99.90;;;7.26;70.05;101124.03;5051389;28;20212;-67
2022/02/03 10:26:39;;;;;;;18.05;7.43;;;7.00;99.90;;;7.02;70.46;101114.19;5050882;28;20173;-68
2022/02/03 10:29:18;;;;;;;12.13;6.00;;;6.90;99.90;;;7.06;71.13;101110.16;5036137;28;20173;-68
2022/02/03 10:31:50;;;;;;;14.43;7.40;;;6.90;99.90;;;7.16;70.71;101107.25;5036027;28;20673;-68
2022/02/03 10:34:26;;;;;;;17.13;6.10;;;6.90;99.90;;;6.87;72.77;101099.78;5035454;28;20213;-67
2022/02/03 10:37:04;;;;;;;21.15;8.27;;;6.70;99.90;;;7.02;72.60;101089.97;5035735;28;20177;-69
2022/02/03 10:51:14;;;;;;;12.60;7.40;;;6.60;99.90;;;6.71;74.72;101075.63;5035081;28;20181;-68
2022/02/03 10:54:05;;;;;;;17.38;8.68;;;6.60;99.90;;;6.63;74.94;101075.66;5035378;28;20243;-67
2022/02/03 10:57:11;;;;;;;22.83;9.20;;;6.60;99.90;;;6.70;75.37;101068.56;5035174;28;20176;-67
2022/02/03 11:05:44;;;;;;;16.45;9.30;;;6.60;99.90;;;6.64;76.40;101061.19;5008727;28;20586;-68
2022/02/03 11:08:18;;;;;;;15.50;9.90;;;6.50;99.90;;;6.97;75.82;101060.88;5056248;28;20177;-67
2022/02/03 11:10:57;;;;;;;18.40;9.65;;;6.70;99.90;;;6.78;76.03;101057.75;5056100;28;20176;-70
2022/02/03 11:13:29;;;;;;;19.30;10.43;;;6.70;99.90;;;6.82;76.45;101059.97;5056077;28;20184;-71
2022/02/03 11:16:05;;;;;;;20.25;9.45;;;6.70;99.90;;;6.90;76.29;101056.38;5054715;28;20761;-70
2022/02/03 11:18:35;;;;;;;17.70;10.77;;;6.70;99.90;;;6.91;76.31;101050.00;5054472;28;20271;-67
2022/02/03 11:21:33;;;;;;;21.98;10.70;;;6.80;99.90;;;6.70;76.93;101055.13;5054481;28;20259;-69
2022/02/03 11:24:11;;;;;;;19.83;9.70;;;6.60;99.90;;;6.76;76.74;101049.06;5054449;28;20301;-69
2022/02/03 11:26:52;;;;;;;16.60;10.38;;;6.70;99.90;;;6.70;77.51;101047.03;5034829;28;20185;-69
2022/02/03 11:30:00;;;;;;;15.77;10.52;;;6.60;99.90;;;6.80;77.74;101039.63;5034754;28;20208;-68
2022/02/03 11:32:44;;;;;;;22.95;12.32;;;6.70;99.90;;;6.77;77.61;101045.34;5034516;28;20193;-68
2022/02/03 11:38:56;;;;;;;17.85;11.25;;;6.80;99.90;;;6.60;78.40;101035.66;5062647;28;20184;-70
2022/02/03 11:50:18;;;;;;;19.20;13.40;;;6.70;99.90;;;6.71;79.30;101014.63;5060608;28;20193;-71
2022/02/03 11:53:14;;;;;;;19.55;11.32;;;6.60;99.90;;;6.76;79.32;101011.41;5053180;28;20193;-71
2022/02/03 11:56:12;;;;;;;20.73;13.80;;;6.60;99.90;;;6.79;79.26;101008.34;5052979;28;20255;-70
2022/02/03 11:59:04;;;;;;;21.05;14.95;;;6.70;99.90;;;6.79;79.53;101008.34;5064664;28;20189;-69
2022/02/03 12:01:45;;;;;;;21.75;12.48;;;6.70;99.90;;;7.01;79.50;101004.06;5073580;28;20169;-70
2022/02/03 12:05:01;;;;;;;23.48;13.70;;;6.80;99.90;;;6.81;79.61;100999.09;5073167;28;20660;-70
2022/02/03 12:08:05;;;;;;;19.75;12.70;;;6.70;99.90;;;6.84;79.98;101001.44;5073305;28;20230;-70
2022/02/03 12:16:56;;;;;;;19.52;14.45;;;6.90;99.90;;;6.77;80.69;100986.19;5053262;28;20223;-71
2022/02/03 12:19:34;;;;;;;14.55;12.10;;;6.80;99.90;;;6.94;80.48;100980.53;5061229;28;20192;-69
2022/02/03 12:22:10;;;;;;;13.48;12.00;;;6.80;99.90;;;7.14;79.43;100986.31;5068796;28;20195;-69
2022/02/03 12:25:06;;;;;;;27.55;16.45;;;6.90;99.90;;;6.99;79.76;100974.63;5072440;28;20212;-72
2022/02/03 12:27:49;;;;;;;15.45;12.90;;;6.90;99.90;;;6.85;80.21;100983.44;5071734;28;20190;-71
2022/02/03 12:30:53;;;;;;;18.48;12.18;;;6.80;99.90;;;6.72;80.37;100973.25;5072240;28;20656;-71
2022/02/03 12:39:05;;;;;;;12.88;11.45;;;6.90;99.90;;;7.05;79.56;100968.53;5053269;28;20192;-72
2022/02/03 12:41:36;;;;;;;16.10;13.23;;;6.90;99.90;;;6.79;80.04;100959.94;5053132;28;20177;-72
2022/02/03 12:44:20;;;;;;;16.58;13.63;;;6.70;99.90;;;6.89;80.32;100964.09;5058956;28;20266;-72
2022/02/03 12:46:51;;;;;;;13.68;12.18;;;6.80;99.90;;;6.94;80.32;100959.00;5073088;28;20192;-71
2022/02/03 12:49:22;;;;;;;16.70;10.95;;;6.80;99.90;;;7.08;80.22;100952.03;5073183;28;20206;-72
2022/02/03 12:51:51;;;;;;;13.90;11.70;;;7.00;99.90;;;7.12;80.14;100945.28;5077405;28;20176;-73
2022/02/03 12:54:19;;;;;;;15.25;11.25;;;7.00;99.90;;;6.94;80.54;100944.72;5058858;28;20216;-72
2022/02/03 12:56:47;;;;;;;18.17;11.35;;;6.80;99.90;;;6.98;80.63;100940.66;5076984;28;20768;-72
2022/02/03 12:59:17;;;;;;;17.60;13.07;;;6.90;99.90;;;6.99;80.46;100931.56;5077160;28;20211;-72
2022/02/03 13:01:51;;;;;;;15.73;11.50;;;6.90;99.90;;;6.87;80.55;100933.81;5076820;28;20721;-71
2022/02/03 13:04:21;;;;;;;14.05;11.48;;;6.80;99.90;;;6.85;80.80;100935.03;5074647;28;20218;-71
2022/02/03 13:07:00;;;;;;;12.30;11.10;;;6.80;99.90;;;6.97;80.65;100926.34;5073950;28;20176;-72
2022/02/03 13:09:38;;;;;;;17.08;11.43;;;6.80;99.90;;;6.97;80.86;100917.47;5072712;28;20191;-72
2022/02/03 13:12:16;;;;;;;12.65;9.70;;;6.80;99.90;;;7.03;80.50;100919.44;5073027;28;20305;-72
2022/02/03 13:14:51;;;;;;;13.32;9.88;;;6.90;99.90;;;6.79;81.10;100920.44;5073420;28;20212;-73
2022/02/03 13:17:25;;;;;;;10.68;9.57;;;6.80;99.90;;;6.91;81.38;100907.44;5075256;28;20179;-71
2022/02/03 13:20:13;;;;;;;13.07;10.40;;;6.80;99.90;;;7.02;80.89;100909.69;5074063;28;20177;-71
2022/02/03 13:22:48;;;;;;;11.73;10.52;;;6.90;99.90;;;7.07;80.61;100912.69;5073710;28;20180;-71
2022/02/03 13:25:22;;;;;;;15.18;10.50;;;7.00;99.90;;;6.98;81.02;100900.28;5063201;28;20214;-71
2022/02/03 13:28:02;;;;;;;12.40;11.10;;;6.90;99.90;;;6.99;81.30;100901.97;5090670;28;20187;-71
2022/02/03 13:30:44;;;;;;;11.38;10.32;;;6.90;99.90;;;6.98;81.64;100900.28;5102402;28;20191;-72
2022/02/03 13:33:19;;;;;;;10.95;9.15;;;6.90;99.90;;;6.98;81.86;100893.06;5103445;28;20228;-72
2022/02/03 13:35:53;;;;;;;11.80;10.57;;;6.90;99.90;;;7.05;81.59;100887.81;5103120;28;20415;-70
2022/02/03 13:38:38;;;;;;;11.70;9.18;;;6.90;99.90;;;7.22;81.75;100885.81;5101188;28;20254;-72
2022/02/03 13:41:15;;;;;;;11.65;10.30;;;7.00;99.90;;;7.38;80.72;100875.75;5100037;28;20263;-71
2022/02/03 13:43:45;;;;;;;13.00;10.75;;;7.20;99.90;;;7.31;80.45;100876.69;5100613;28;20180;-72
2022/02/03 13:46:28;;;;;;;13.43;10.77;;;7.20;99.90;;;7.22;80.92;100878.59;5100237;28;20221;-72
2022/02/03 13:48:58;;;;;;;12.43;9.13;;;7.20;1.00;;;7.15;81.50;100883.03;5096653;28;20179;-72
2022/02/03 13:51:28;;;;;;;10.98;9.77;;;7.10;1.00;;;7.29;81.25;100884.09;5098717;28;20191;-71
2022/02/03 13:54:05;;;;;;;16.05;11.80;;;7.20;1.00;;;7.11;81.62;100881.72;5097110;28;20181;-71
2022/02/03 14:12:05;;;;;;;13.18;11.05;;;7.20;99.90;;;7.31;81.45;100855.16;5106235;28;20231;-72
2022/02/03 14:20:36;;;;;;;16.10;11.20;;;7.30;99.90;;;7.32;81.63;100846.88;5043242;28;20580;-72
2022/02/03 14:28:37;;;;;;;15.98;11.68;;;7.20;40.00;;;7.36;82.01;100842.78;5075789;28;20176;-70
2022/02/03 14:31:07;;;;;;;13.25;10.93;;;7.30;99.90;;;7.45;81.88;100840.03;5075879;28;20227;-71
2022/02/03 14:33:38;;;;;;;15.15;12.45;;;7.30;99.90;;;7.38;82.11;100838.06;5075308;28;20179;-72
2022/02/03 14:36:10;;;;;;;12.32;11.07;;;7.30;99.90;;;7.37;82.02;100831.00;5057138;28;20294;-71
2022/02/03 14:38:48;;;;;;;13.77;10.55;;;7.30;99.90;;;7.46;82.05;100830.91;5075456;28;20216;-70
2022/02/03 14:41:23;;;;;;;16.27;11.80;;;7.30;99.90;;;7.50;81.90;100822.31;5075344;28;20700;-71
2022/02/03 14:43:53;;;;;;;14.25;11.20;;;7.40;99.90;;;7.50;81.75;100821.47;5075759;28;20184;-68
2022/02/03 14:46:29;;;;;;;15.10;12.50;;;7.40;99.90;;;7.48;82.27;100824.34;5080424;28;20204;-70
2022/02/03 14:48:57;;;;;;;14.80;11.35;;;7.40;99.90;;;7.38;82.17;100813.84;5083616;28;20188;-69
2022/02/03 14:51:35;;;;;;;11.77;10.50;;;7.30;99.90;;;7.45;82.13;100813.13;5085007;28;20176;-69
2022/02/03 14:58:01;;;;;;;15.63;9.80;;;7.30;99.90;;;7.55;82.03;100813.69;5086641;28;20207;-70
2022/02/03 14:59:55;;;;;;;12.00;10.18;;;7.40;99.90;;;7.52;82.46;100819.44;5077992;28;20192;-68
2022/02/03 15:02:23;;;;;;;11.68;10.27;;;7.40;99.90;;;7.54;82.29;100817.41;5079066;28;20684;-67
2022/02/03 15:04:55;;;;;;;15.40;11.50;;;7.50;99.90;;;7.37;82.61;100812.16;5080953;28;20226;-70
2022/02/03 15:07:26;;;;;;;12.07;10.82;;;7.40;99.90;;;7.48;82.52;100812.75;5084658;28;20193;-68
2022/02/03 15:10:27;;;;;;;16.63;12.23;;;7.40;99.90;;;7.50;82.67;100806.16;5083197;28;20214;-68
2022/02/03 15:13:04;;;;;;;13.05;11.65;;;7.40;99.90;;;7.50;82.79;100805.31;5079857;28;20198;-69
2022/02/03 15:15:32;;;;;;;14.63;11.00;;;7.40;99.90;;;7.44;82.82;100801.50;5078066;28;20224;-69
2022/02/03 15:18:00;;;;;;;14.18;11.55;;;7.40;99.90;;;7.50;82.63;100805.31;5062430;28;20227;-69
2022/02/03 15:20:30;;;;;;;11.88;10.55;;;7.40;99.90;;;7.49;83.02;100814.41;5078379;28;20188;-71
2022/02/03 15:23:00;;;;;;;16.95;11.52;;;7.40;99.90;;;7.52;82.89;100792.50;5078373;28;20214;-70
2022/02/03 15:25:29;;;;;;;12.10;10.90;;;7.40;99.90;;;7.48;83.08;100794.72;5059167;28;20220;-71
2022/02/03 15:27:57;;;;;;;15.23;12.02;;;7.40;99.90;;;7.50;82.93;100800.78;5077242;28;20180;-70
2022/02/03 15:30:27;;;;;;;12.18;10.63;;;7.40;99.90;;;7.51;82.75;100797.03;5076026;28;20219;-70
2022/02/03 15:32:55;;;;;;;20.77;11.73;;;7.40;99.90;;;7.54;82.60;100795.84;5077031;28;20192;-68
2022/02/03 15:35:30;;;;;;;13.35;10.95;;;7.50;99.90;;;7.32;83.22;100794.88;5075527;28;20248;-69
2022/02/03 15:38:01;;;;;;;12.40;10.20;;;7.30;99.90;;;7.46;82.82;100785.16;5059231;28;20247;-68
2022/02/03 15:40:30;;;;;;;14.07;11.02;;;7.40;99.90;;;7.43;82.99;100786.38;5077676;28;20188;-71
2022/02/03 15:43:05;;;;;;;16.60;11.80;;;7.40;99.90;;;7.53;82.85;100795.00;5080250;28;20219;-71
2022/02/03 15:45:37;;;;;;;13.30;11.45;;;7.40;99.90;;;7.52;83.00;100789.81;5080404;28;20256;-71
2022/02/03 15:48:19;;;;;;;16.85;12.10;;;7.50;99.90;;;7.51;82.79;100790.81;5080391;28;20172;-69
2022/02/03 16:13:50;;;;;;;15.95;12.43;;;7.40;99.90;;;7.39;83.45;100777.84;5079811;28;20184;-71
2022/02/03 16:19:01;;;;;;;16.52;13.07;;;7.50;99.90;;;7.48;83.52;100780.44;5079416;28;20192;-71
2022/02/03 16:21:35;;;;;;;15.13;12.80;;;7.40;99.90;;;7.55;83.19;100784.06;5061754;28;20296;-70
2022/02/03 16:24:21;;;;;;;15.07;12.80;;;7.40;99.90;;;7.40;83.60;100776.81;5079543;28;20608;-71
2022/02/03 16:32:01;;;;;;;21.88;15.25;;;7.40;99.90;;;7.42;83.65;100780.16;5078969;28;20195;-71
2022/02/03 16:41:28;;;;;;;17.52;12.05;;;7.50;99.90;;;7.66;83.36;100784.44;5078983;28;20192;-70
2022/02/03 16:55:10;;;;;;;18.05;13.23;;;7.50;99.90;;;7.49;83.78;100766.78;5073807;28;20216;-70
2022/02/03 16:57:39;;;;;;;15.05;13.43;;;7.40;99.90;;;7.65;83.46;100765.78;5079400;28;20211;-69
2022/02/03 17:00:13;;;;;;;16.50;14.52;;;7.50;99.90;;;7.63;83.03;100762.41;5079671;28;20195;-69
2022/02/03 17:02:59;;;;;;;21.38;15.63;;;7.60;99.90;;;7.66;83.14;100759.34;5075215;28;20814;-70